createdAt,value
2022-12-05T00:00:54.565Z,1.91
2022-12-05T00:03:22.185Z,1.67
2022-12-05T00:05:49.030Z,1.89
2022-12-05T00:08:15.610Z,1.88
2022-12-05T00:10:42.696Z,1.87
2022-12-05T00:13:10.182Z,1.89
2022-12-05T00:15:38.640Z,1.88
2022-12-05T00:18:05.788Z,1.69
2022-12-05T00:20:32.654Z,1.87
2022-12-05T00:22:59.684Z,1.83
2022-12-05T00:25:26.252Z,1.90
2022-12-05T00:27:52.767Z,1.88
2022-12-05T00:30:19.390Z,1.69
2022-12-05T00:32:45.956Z,1.91
2022-12-05T00:35:12.513Z,1.90
2022-12-05T00:37:39.034Z,1.91
2022-12-05T00:40:06.540Z,1.89
2022-12-05T00:42:33.092Z,1.86
2022-12-05T00:44:59.629Z,1.87
2022-12-05T00:47:26.273Z,1.83
2022-12-05T00:49:52.799Z,1.87
2022-12-05T00:52:19.324Z,1.84
2022-12-05T00:54:45.871Z,1.73
2022-12-05T00:57:12.550Z,1.85
2022-12-05T00:59:40.355Z,1.89
2022-12-05T01:02:06.917Z,1.87
2022-12-05T01:04:33.411Z,1.74
2022-12-05T01:07:00.031Z,1.87
2022-12-05T01:09:26.985Z,1.76
2022-12-05T01:11:53.874Z,1.86
2022-12-05T01:14:22.661Z,1.93
2022-12-05T01:16:50.807Z,1.93
2022-12-05T01:19:26.655Z,1.93
2022-12-05T01:21:54.041Z,1.96
2022-12-05T01:24:21.774Z,1.98
2022-12-05T01:26:48.980Z,1.90
2022-12-05T01:29:19.559Z,1.97
2022-12-05T01:31:46.165Z,1.97
2022-12-05T01:34:15.269Z,1.97
2022-12-05T01:36:42.351Z,1.97
2022-12-05T01:39:10.808Z,1.95
2022-12-05T01:41:42.274Z,2.00
2022-12-05T01:44:28.673Z,2.01
2022-12-05T01:46:56.066Z,2.03
2022-12-05T01:49:32.991Z,2.05
2022-12-05T01:52:07.649Z,2.09
2022-12-05T01:54:37.062Z,2.03
2022-12-05T01:57:08.393Z,2.06
2022-12-05T01:59:38.725Z,1.97
2022-12-05T02:02:06.316Z,2.09
2022-12-05T02:04:38.486Z,2.11
2022-12-05T02:07:05.065Z,2.10
2022-12-05T02:09:31.657Z,2.06
2022-12-05T02:12:00.979Z,2.08
2022-12-05T02:14:46.739Z,2.11
2022-12-05T02:17:22.163Z,2.10
2022-12-05T02:20:15.019Z,2.05
2022-12-05T02:22:50.356Z,1.92
2022-12-05T02:25:38.555Z,2.11
2022-12-05T02:28:20.219Z,2.10
2022-12-05T02:30:56.536Z,2.08
2022-12-05T02:33:44.449Z,1.91
2022-12-05T02:36:23.884Z,2.13
2022-12-05T02:39:00.455Z,2.13
2022-12-05T02:41:38.405Z,2.09
2022-12-05T02:44:16.137Z,1.97
2022-12-05T02:46:46.330Z,1.90
2022-12-05T02:49:20.022Z,2.07
2022-12-05T02:51:51.475Z,1.99
2022-12-05T02:54:24.602Z,2.13
2022-12-05T02:56:53.179Z,2.10
2022-12-05T02:59:23.269Z,2.10
2022-12-05T03:01:51.202Z,1.92
2022-12-05T03:04:21.014Z,2.15
2022-12-05T03:07:04.848Z,2.10
2022-12-05T03:09:54.204Z,2.17
2022-12-05T03:12:31.058Z,2.25
2022-12-05T03:15:06.430Z,2.04
2022-12-05T03:17:40.890Z,2.07
2022-12-05T03:20:20.322Z,2.22
2022-12-05T03:22:54.329Z,2.04
2022-12-05T03:25:25.598Z,2.23
2022-12-05T03:28:21.955Z,2.25
2022-12-05T03:30:53.001Z,2.21
2022-12-05T03:33:35.337Z,2.15
2022-12-05T03:36:10.637Z,2.19
2022-12-05T03:38:47.630Z,2.07
2022-12-05T03:41:32.374Z,2.01
2022-12-05T03:44:05.801Z,2.26
2022-12-05T03:46:43.970Z,2.29
2022-12-05T03:49:34.096Z,2.22
2022-12-05T03:52:12.862Z,2.21
2022-12-05T03:54:45.437Z,2.15
2022-12-05T03:57:17.119Z,2.18
2022-12-05T04:00:10.989Z,2.15
2022-12-05T04:02:56.095Z,2.14
2022-12-05T04:05:31.608Z,2.11
2022-12-05T04:08:14.842Z,2.13
2022-12-05T04:10:49.121Z,1.86
2022-12-05T04:13:26.974Z,2.14
2022-12-05T04:16:24.606Z,2.12
2022-12-05T04:18:59.904Z,2.10
2022-12-05T04:21:39.717Z,2.09
2022-12-05T04:24:32.546Z,1.86
2022-12-05T04:27:21.204Z,2.07
2022-12-05T04:30:00.245Z,1.90
2022-12-05T04:32:39.009Z,2.04
2022-12-05T04:35:13.016Z,2.02
2022-12-05T04:37:45.094Z,2.02
2022-12-05T04:40:48.829Z,2.08
2022-12-05T04:43:18.761Z,2.05
2022-12-05T04:45:45.947Z,2.07
2022-12-05T04:48:16.167Z,2.13
2022-12-05T04:50:45.230Z,2.13
2022-12-05T04:53:12.797Z,2.09
2022-12-05T04:55:43.660Z,2.14
2022-12-05T04:58:19.087Z,2.13
2022-12-05T05:00:58.118Z,2.16
2022-12-05T05:03:34.372Z,2.13
2022-12-05T05:06:01.479Z,2.13
2022-12-05T05:08:29.218Z,2.13
2022-12-05T05:11:10.572Z,2.20
2022-12-05T05:13:37.136Z,2.18
2022-12-05T05:16:04.211Z,2.11
2022-12-05T05:18:31.097Z,2.16
2022-12-05T05:20:57.629Z,2.15
2022-12-05T05:23:25.472Z,2.24
2022-12-05T05:25:56.234Z,2.25
2022-12-05T05:28:23.742Z,2.27
2022-12-05T05:30:50.384Z,2.20
2022-12-05T05:33:17.033Z,2.23
2022-12-05T05:35:43.614Z,2.23
2022-12-05T05:38:10.254Z,2.10
2022-12-05T05:40:37.536Z,2.23
2022-12-05T05:43:04.290Z,2.19
2022-12-05T05:45:30.902Z,2.20
2022-12-05T05:47:57.499Z,2.22
2022-12-05T05:50:24.054Z,2.23
2022-12-05T05:52:50.597Z,2.18
2022-12-05T05:55:17.174Z,2.04
2022-12-05T05:57:43.759Z,2.20
2022-12-05T06:00:10.674Z,2.22
2022-12-05T06:02:37.730Z,2.06
2022-12-05T06:05:05.008Z,2.21
2022-12-05T06:07:31.663Z,2.24
2022-12-05T06:09:58.498Z,2.24
2022-12-05T06:12:25.298Z,2.23
2022-12-05T06:14:52.637Z,2.14
2022-12-05T06:17:19.183Z,2.18
2022-12-05T06:19:46.032Z,2.18
2022-12-05T06:22:12.674Z,1.99
2022-12-05T06:24:39.312Z,2.19
2022-12-05T06:27:05.992Z,2.23
2022-12-05T06:29:34.149Z,2.27
2022-12-05T06:32:01.463Z,2.29
2022-12-05T06:34:28.374Z,2.28
2022-12-05T06:36:55.049Z,2.28
2022-12-05T06:39:21.674Z,2.29
2022-12-05T06:41:48.173Z,2.24
2022-12-05T06:44:14.728Z,2.28
2022-12-05T06:46:41.352Z,2.32
2022-12-05T06:49:10.035Z,2.25
2022-12-05T06:51:36.708Z,2.28
2022-12-05T06:54:03.276Z,2.19
2022-12-05T06:56:29.805Z,2.34
2022-12-05T06:58:56.399Z,2.36
2022-12-05T07:01:40.994Z,2.32
2022-12-05T07:04:13.517Z,2.20
2022-12-05T07:06:40.777Z,2.30
2022-12-05T07:09:07.877Z,2.33
2022-12-05T07:11:35.230Z,2.33
2022-12-05T07:14:10.192Z,2.37
2022-12-05T07:16:43.845Z,2.40
2022-12-05T07:19:11.333Z,2.40
2022-12-05T07:21:37.876Z,2.40
2022-12-05T07:24:04.688Z,2.38
2022-12-05T07:26:31.267Z,2.41
2022-12-05T07:28:58.083Z,2.47
2022-12-05T07:31:26.032Z,2.50
2022-12-05T07:33:52.687Z,2.53
2022-12-05T07:36:22.392Z,2.53
2022-12-05T07:38:48.887Z,2.55
2022-12-05T07:41:22.736Z,2.46
2022-12-05T07:43:51.268Z,2.71
2022-12-05T07:46:18.614Z,2.62
2022-12-05T07:48:45.988Z,2.42
2022-12-05T07:51:12.561Z,2.59
2022-12-05T07:53:39.799Z,2.39
2022-12-05T07:56:08.323Z,2.64
2022-12-05T07:58:35.811Z,2.78
2022-12-05T08:01:11.669Z,2.83
2022-12-05T08:03:38.579Z,2.76
2022-12-05T08:06:10.814Z,2.80
2022-12-05T08:08:37.760Z,2.77
2022-12-05T08:11:12.335Z,2.84
2022-12-05T08:13:39.161Z,2.88
2022-12-05T08:16:09.452Z,2.93
2022-12-05T08:18:36.745Z,2.94
2022-12-05T08:21:04.741Z,2.95
2022-12-05T08:23:32.409Z,2.85
2022-12-05T08:26:08.209Z,2.87
2022-12-05T08:28:35.560Z,2.83
2022-12-05T08:31:11.482Z,2.85
2022-12-05T08:33:38.155Z,2.92
2022-12-05T08:36:07.266Z,2.91
2022-12-05T08:38:34.712Z,3.02
2022-12-05T08:41:07.707Z,2.99
2022-12-05T08:43:34.641Z,2.97
2022-12-05T08:46:02.234Z,3.02
2022-12-05T08:48:30.982Z,3.12
2022-12-05T08:50:57.526Z,3.20
2022-12-05T08:53:24.201Z,3.34
2022-12-05T08:55:50.856Z,3.42
2022-12-05T08:58:17.362Z,3.48
2022-12-05T09:00:43.966Z,3.51
2022-12-05T09:03:11.927Z,3.38
2022-12-05T09:05:38.669Z,3.52
2022-12-05T09:08:05.369Z,3.56
2022-12-05T09:10:33.002Z,3.58
2022-12-05T09:12:59.601Z,3.57
2022-12-05T09:15:26.190Z,3.60
2022-12-05T09:17:52.903Z,3.60
2022-12-05T09:20:19.622Z,3.63
2022-12-05T09:22:46.129Z,3.60
2022-12-05T09:25:12.645Z,3.51
2022-12-05T09:27:39.210Z,3.39
2022-12-05T09:30:09.278Z,3.31
2022-12-05T09:32:35.807Z,3.32
2022-12-05T09:35:02.596Z,3.34
2022-12-05T09:37:42.909Z,3.39
2022-12-05T09:40:17.074Z,3.47
2022-12-05T09:43:06.853Z,3.58
2022-12-05T09:45:43.987Z,3.61
2022-12-05T09:48:21.678Z,3.57
2022-12-05T09:51:01.090Z,3.43
2022-12-05T09:53:30.902Z,3.44
2022-12-05T09:56:12.504Z,3.42
2022-12-05T09:58:46.329Z,3.37
2022-12-05T10:01:51.538Z,3.32
2022-12-05T10:05:00.667Z,3.31
2022-12-05T10:08:08.757Z,3.30
2022-12-05T10:10:57.315Z,3.27
2022-12-05T10:14:12.048Z,3.26
2022-12-05T10:16:51.762Z,3.34
2022-12-05T10:19:27.599Z,3.41
2022-12-05T10:22:20.304Z,3.46
2022-12-05T10:24:54.712Z,3.37
2022-12-05T10:27:38.205Z,3.56
2022-12-05T10:30:14.806Z,3.53
2022-12-05T10:32:53.564Z,3.40
2022-12-05T10:35:38.852Z,3.59
2022-12-05T10:38:11.170Z,3.50
2022-12-05T10:40:43.058Z,3.31
2022-12-05T10:43:14.518Z,3.35
2022-12-05T10:45:46.568Z,3.47
2022-12-05T10:48:16.672Z,3.71
2022-12-05T10:50:48.665Z,3.74
2022-12-05T10:53:38.352Z,3.87
2022-12-05T10:56:43.651Z,3.90
2022-12-05T10:59:22.243Z,3.52
2022-12-05T11:01:53.780Z,3.69
2022-12-05T11:04:30.743Z,3.78
2022-12-05T11:07:05.539Z,3.83
2022-12-05T11:09:36.569Z,3.90
2022-12-05T11:12:17.186Z,3.90
2022-12-05T11:15:21.861Z,3.78
2022-12-05T11:17:50.156Z,3.65
2022-12-05T11:20:19.724Z,3.75
2022-12-05T11:22:56.602Z,3.80
2022-12-05T11:25:35.644Z,3.84
2022-12-05T11:28:17.664Z,3.85
2022-12-05T11:31:20.950Z,4.00
2022-12-05T11:34:20.084Z,4.13
2022-12-05T11:37:00.102Z,4.02
2022-12-05T11:39:26.692Z,3.93
2022-12-05T11:41:56.260Z,3.90
2022-12-05T11:44:34.914Z,3.86
2022-12-05T11:47:23.235Z,3.82
2022-12-05T11:50:01.917Z,3.85
2022-12-05T11:53:04.378Z,3.84
2022-12-05T11:55:39.715Z,3.79
2022-12-05T11:58:31.153Z,3.70
2022-12-05T12:01:03.788Z,3.77
2022-12-05T12:03:40.268Z,3.64
2022-12-05T12:06:37.603Z,3.77
2022-12-05T12:09:42.157Z,3.80
2022-12-05T12:12:35.841Z,3.70
2022-12-05T12:15:21.172Z,3.88
2022-12-05T12:18:04.502Z,3.92
2022-12-05T12:20:57.449Z,3.97
2022-12-05T12:23:52.482Z,4.18
2022-12-05T12:26:27.046Z,4.21
2022-12-05T12:29:16.021Z,4.23
2022-12-05T12:31:54.498Z,4.16
2022-12-05T12:34:56.590Z,4.03
2022-12-05T12:37:58.213Z,3.94
2022-12-05T12:40:39.330Z,3.99
2022-12-05T12:43:54.960Z,4.05
2022-12-05T12:46:38.178Z,4.09
2022-12-05T12:49:41.834Z,4.05
2022-12-05T12:52:15.102Z,3.84
2022-12-05T12:55:09.123Z,3.86
2022-12-05T12:57:56.656Z,3.99
2022-12-05T13:00:31.993Z,4.00
2022-12-05T13:03:17.610Z,4.05
2022-12-05T13:06:28.364Z,4.09
2022-12-05T13:09:02.423Z,4.04
2022-12-05T13:11:35.148Z,4.10
2022-12-05T13:14:02.298Z,4.15
2022-12-05T13:16:34.187Z,4.13
2022-12-05T13:19:01.672Z,4.25
2022-12-05T13:21:28.812Z,4.26
2022-12-05T13:24:03.260Z,4.30
2022-12-05T13:26:36.571Z,4.33
2022-12-05T13:29:04.624Z,4.08
2022-12-05T13:31:35.337Z,4.14
2022-12-05T13:34:02.047Z,4.21
2022-12-05T13:36:47.533Z,4.13
2022-12-05T13:39:32.471Z,4.10
2022-12-05T13:42:15.390Z,4.10
2022-12-05T13:45:05.157Z,4.15
2022-12-05T13:47:52.112Z,4.21
2022-12-05T13:50:52.084Z,4.28
2022-12-05T13:53:42.348Z,4.27
2022-12-05T13:56:14.757Z,4.27
2022-12-05T13:58:42.888Z,4.32
2022-12-05T14:01:27.771Z,4.35
2022-12-05T14:04:00.769Z,4.28
2022-12-05T14:06:50.603Z,4.22
2022-12-05T14:09:17.035Z,4.19
2022-12-05T14:12:12.272Z,4.19
2022-12-05T14:14:57.137Z,4.21
2022-12-05T14:17:32.233Z,4.16
2022-12-05T14:20:10.815Z,4.14
2022-12-05T14:22:52.446Z,4.14
2022-12-05T14:25:51.656Z,4.14
2022-12-05T14:28:28.200Z,4.14
2022-12-05T14:31:23.832Z,4.09
2022-12-05T14:34:05.621Z,4.10
2022-12-05T14:36:33.806Z,4.11
2022-12-05T14:39:00.399Z,4.15
2022-12-05T14:41:34.686Z,4.18
2022-12-05T14:44:08.440Z,4.13
2022-12-05T14:46:35.568Z,4.15
2022-12-05T14:49:51.692Z,4.15
2022-12-05T14:52:23.226Z,4.16
2022-12-05T14:54:53.985Z,4.17
2022-12-05T14:57:21.253Z,4.15
2022-12-05T15:00:01.498Z,4.14
2022-12-05T15:02:39.565Z,4.14
2022-12-05T15:05:21.267Z,4.14
2022-12-05T15:07:48.496Z,4.17
2022-12-05T15:10:25.568Z,4.24
2022-12-05T15:12:58.664Z,4.26
2022-12-05T15:15:40.063Z,4.24
2022-12-05T15:18:24.717Z,4.19
2022-12-05T15:20:58.413Z,4.16
2022-12-05T15:24:12.282Z,4.14
2022-12-05T15:26:48.923Z,4.14
2022-12-05T15:29:28.010Z,4.13
2022-12-05T15:32:03.756Z,4.13
2022-12-05T15:34:48.175Z,4.12
2022-12-05T15:37:17.283Z,4.12
2022-12-05T15:40:00.552Z,4.12
2022-12-05T15:42:41.464Z,4.11
2022-12-05T15:45:14.101Z,4.13
2022-12-05T15:47:45.588Z,4.11
2022-12-05T15:50:33.133Z,4.16
2022-12-05T15:53:29.732Z,4.16
2022-12-05T15:56:04.728Z,4.15
2022-12-05T15:58:41.676Z,4.15
2022-12-05T16:01:20.111Z,4.15
2022-12-05T16:03:52.338Z,4.16
2022-12-05T16:07:02.998Z,4.21
2022-12-05T16:09:33.340Z,4.04
2022-12-05T16:12:39.357Z,4.20
2022-12-05T16:15:20.354Z,4.19
2022-12-05T16:17:52.336Z,4.16
2022-12-05T16:20:18.985Z,4.18
2022-12-05T16:22:51.916Z,4.18
2022-12-05T16:25:24.187Z,4.19
2022-12-05T16:27:59.135Z,4.23
2022-12-05T16:30:26.638Z,4.25
2022-12-05T16:33:11.627Z,4.28
2022-12-05T16:35:50.194Z,4.26
2022-12-05T16:38:16.696Z,4.16
2022-12-05T16:40:45.830Z,4.12
2022-12-05T16:43:35.931Z,4.26
2022-12-05T16:46:13.058Z,4.10
2022-12-05T16:48:44.719Z,4.27
2022-12-05T16:51:11.204Z,4.28
2022-12-05T16:53:39.354Z,4.29
2022-12-05T16:56:07.613Z,4.25
2022-12-05T16:58:35.700Z,4.24
2022-12-05T17:01:07.031Z,4.25
2022-12-05T17:03:35.853Z,4.18
2022-12-05T17:06:03.590Z,4.32
2022-12-05T17:08:30.156Z,4.33
2022-12-05T17:10:57.939Z,4.39
2022-12-05T17:13:24.666Z,4.39
2022-12-05T17:15:51.277Z,4.36
2022-12-05T17:18:20.744Z,4.38
2022-12-05T17:20:53.278Z,4.41
2022-12-05T17:23:19.820Z,4.31
2022-12-05T17:25:50.317Z,4.50
2022-12-05T17:28:16.895Z,4.51
2022-12-05T17:30:43.413Z,4.53
2022-12-05T17:33:11.795Z,4.45
2022-12-05T17:35:38.865Z,4.47
2022-12-05T17:38:05.546Z,4.57
2022-12-05T17:40:33.098Z,4.57
2022-12-05T17:43:00.310Z,4.56
2022-12-05T17:45:26.843Z,4.58
2022-12-05T17:47:53.477Z,4.59
2022-12-05T17:50:22.599Z,4.66
2022-12-05T17:52:50.408Z,4.67
2022-12-05T17:55:20.531Z,4.56
2022-12-05T17:57:47.568Z,4.58
2022-12-05T18:00:16.471Z,4.56
2022-12-05T18:02:45.063Z,4.52
2022-12-05T18:05:13.529Z,4.56
2022-12-05T18:07:41.641Z,4.58
2022-12-05T18:12:57.041Z,4.66
2022-12-05T18:15:23.580Z,4.61
2022-12-05T18:17:53.371Z,4.56
2022-12-05T18:20:20.043Z,4.54
2022-12-05T18:22:46.592Z,4.40
2022-12-05T18:25:13.096Z,4.51
2022-12-05T18:27:39.654Z,4.52
2022-12-05T18:30:08.198Z,4.54
2022-12-05T18:32:34.798Z,4.63
2022-12-05T18:35:04.689Z,4.66
2022-12-05T18:37:40.869Z,4.72
2022-12-05T18:40:09.577Z,4.70
2022-12-05T18:42:36.675Z,4.62
2022-12-05T18:45:03.974Z,4.73
2022-12-05T18:47:32.675Z,4.34
2022-12-05T18:50:00.513Z,4.68
2022-12-05T18:52:27.008Z,4.67
2022-12-05T18:55:09.179Z,4.69
2022-12-05T18:57:40.063Z,4.65
2022-12-05T19:00:07.453Z,4.61
2022-12-05T19:02:35.252Z,4.57
2022-12-05T19:05:01.960Z,4.61
2022-12-05T19:07:28.495Z,4.65
2022-12-05T19:09:55.046Z,4.67
2022-12-05T19:12:21.690Z,4.64
2022-12-05T19:14:48.251Z,4.66
2022-12-05T19:17:14.826Z,4.67
2022-12-05T19:19:41.390Z,4.73
2022-12-05T19:22:07.886Z,4.75
2022-12-05T19:24:34.468Z,4.70
2022-12-05T19:27:00.961Z,4.64
2022-12-05T19:29:27.518Z,4.65
2022-12-05T19:31:54.120Z,4.56
2022-12-05T19:34:20.750Z,4.57
2022-12-05T19:36:47.299Z,4.43
2022-12-05T19:39:17.367Z,4.56
2022-12-05T19:41:44.625Z,4.52
2022-12-05T19:44:11.526Z,4.46
2022-12-05T19:46:38.554Z,4.41
2022-12-05T19:49:10.925Z,4.51
2022-12-05T19:51:37.846Z,4.40
2022-12-05T19:54:05.799Z,4.61
2022-12-05T19:56:34.580Z,4.64
2022-12-05T19:59:01.578Z,4.60
2022-12-05T20:01:33.826Z,4.64
2022-12-05T20:04:09.407Z,4.56
2022-12-05T20:06:38.522Z,4.50
2022-12-05T20:09:06.515Z,4.58
2022-12-05T20:11:33.032Z,4.59
2022-12-05T20:14:01.415Z,4.62
2022-12-05T20:16:29.494Z,4.65
2022-12-05T20:18:59.014Z,4.61
2022-12-05T20:21:27.709Z,4.51
2022-12-05T20:23:54.614Z,4.41
2022-12-05T20:26:28.599Z,4.51
2022-12-05T20:28:58.460Z,4.43
2022-12-05T20:31:30.384Z,4.40
2022-12-05T20:33:57.269Z,4.23
2022-12-05T20:36:30.439Z,4.14
2022-12-05T20:39:02.568Z,4.23
2022-12-05T20:41:29.743Z,4.09
2022-12-05T20:44:02.397Z,4.24
2022-12-05T20:46:29.967Z,4.32
2022-12-05T20:48:56.682Z,4.33
2022-12-05T20:51:26.430Z,4.33
2022-12-05T20:53:53.105Z,4.29
2022-12-05T20:56:22.808Z,4.28
2022-12-05T20:58:50.948Z,4.23
2022-12-05T21:01:20.194Z,4.25
2022-12-05T21:03:49.778Z,4.30
2022-12-05T21:06:19.845Z,4.14
2022-12-05T21:08:46.419Z,4.13
2022-12-05T21:11:13.281Z,4.17
2022-12-05T21:13:40.348Z,4.31
2022-12-05T21:16:11.872Z,4.33
2022-12-05T21:18:39.869Z,4.28
2022-12-05T21:21:11.091Z,4.28
2022-12-05T21:23:37.580Z,4.27
2022-12-05T21:26:06.741Z,4.23
2022-12-05T21:28:34.482Z,4.19
2022-12-05T21:31:22.413Z,4.13
2022-12-05T21:33:54.300Z,4.17
2022-12-05T21:36:21.871Z,4.20
2022-12-05T21:38:52.420Z,4.21
2022-12-05T21:41:22.707Z,4.08
2022-12-05T21:43:54.112Z,4.02
2022-12-05T21:46:22.248Z,4.15
2022-12-05T21:48:48.867Z,4.17
2022-12-05T21:51:15.585Z,4.19
2022-12-05T21:53:42.167Z,4.24
2022-12-05T21:56:15.589Z,4.23
2022-12-05T21:58:43.464Z,4.11
2022-12-05T22:01:19.279Z,4.14
2022-12-05T22:03:46.267Z,4.16
2022-12-05T22:06:15.404Z,4.14
2022-12-05T22:08:42.616Z,4.16
2022-12-05T22:11:11.887Z,4.14
2022-12-05T22:13:38.979Z,4.07
2022-12-05T22:16:06.903Z,4.10
2022-12-05T22:18:34.672Z,4.12
2022-12-05T22:21:13.326Z,4.08
2022-12-05T22:23:40.113Z,4.10
2022-12-05T22:26:08.545Z,4.15
2022-12-05T22:28:36.247Z,4.08
2022-12-05T22:31:05.993Z,4.10
2022-12-05T22:33:35.424Z,4.14
2022-12-05T22:36:03.348Z,4.12
2022-12-05T22:38:34.927Z,4.18
2022-12-05T22:41:04.856Z,4.15
2022-12-05T22:43:33.285Z,4.21
2022-12-05T22:46:12.281Z,4.06
2022-12-05T22:48:38.944Z,4.16
2022-12-05T22:51:07.050Z,4.14
2022-12-05T22:53:34.559Z,3.97
2022-12-05T22:56:06.544Z,4.00
2022-12-05T22:58:34.153Z,4.05
2022-12-05T23:01:10.866Z,4.21
2022-12-05T23:03:37.510Z,4.20
2022-12-05T23:06:11.180Z,4.32
2022-12-05T23:08:38.867Z,4.40
2022-12-05T23:11:06.879Z,4.43
2022-12-05T23:13:35.257Z,4.44
2022-12-05T23:16:22.465Z,4.47
2022-12-05T23:18:55.868Z,4.38
2022-12-05T23:21:29.527Z,4.31
2022-12-05T23:23:59.729Z,4.26
2022-12-05T23:26:30.686Z,4.21
2022-12-05T23:28:57.273Z,4.13
2022-12-05T23:31:23.948Z,4.16
2022-12-05T23:33:51.604Z,4.17
2022-12-05T23:36:19.529Z,4.18
2022-12-05T23:38:46.896Z,4.17
2022-12-05T23:41:17.953Z,4.11
2022-12-05T23:43:45.443Z,4.12
2022-12-05T23:46:13.587Z,4.08
2022-12-05T23:48:40.357Z,4.05
2022-12-05T23:51:10.819Z,4.08
2022-12-05T23:53:39.689Z,3.91
2022-12-05T23:56:16.131Z,4.12
2022-12-05T23:58:43.789Z,4.14
